M I D A S
Marine Information and Data Acquisition System
Tripno 1996 of the Zeeleeuw from 2010-10-27 06:16:02 to 2010-10-27 14:40:10
Back to CruiseResearch ActivitiesStationsMapUnderway DataData graphs

EquipmentUnitsComment
TimeDGPSUTC
LatitudeDGPSDM.mWGS84
LongitudeDGPSDM.mWGS84
HeadingGyrodeg 
SOGDGPSknotsSpeed over ground
COGDGPSdegCourse over ground
DepthEcho soundermeters200 kHz
Missing or incorrect values are displayed as -999
Navigation data collected by the RV Zeeleeuw from 2010-10-27 06:10:07 to 2010-10-27 14:46:31
                                                                                    Next 1000 lines
Time Latitude Longitude Heading SOG COG Depth
2010-10-27 06:10:16 51°13.664 2°55.961 124.8 -999 357 8.5
2010-10-27 06:10:21 51°13.664 2°55.961 124.7 -999 102 8.4
2010-10-27 06:10:26 51°13.664 2°55.961 124.6 -999 132 8.4
2010-10-27 06:10:31 51°13.664 2°55.961 124.4 0.1 315 8.4
2010-10-27 06:10:35 51°13.664 2°55.961 124.4 0.1 345 8.4
2010-10-27 06:10:40 51°13.664 2°55.961 124.4 -999 182 8.4
2010-10-27 06:10:45 51°13.664 2°55.961 124.4 -999 91 8.5
2010-10-27 06:10:50 51°13.664 2°55.961 124.4 0.1 328 8.4
2010-10-27 06:10:55 51°13.664 2°55.961 124.4 -999 301 8.4
2010-10-27 06:10:59 51°13.664 2°55.962 124.5 -999 172 8.4
2010-10-27 06:11:05 51°13.664 2°55.962 124.5 0.1 155 -999
2010-10-27 06:11:10 51°13.664 2°55.962 124.5 -999 238 8.4
2010-10-27 06:11:15 51°13.664 2°55.962 124.5 0.1 329 8.4
2010-10-27 06:11:20 51°13.664 2°55.962 124.5 0.1 10 8.4
2010-10-27 06:11:25 51°13.664 2°55.962 124.5 0.1 70 8.3
2010-10-27 06:11:30 51°13.663 2°55.962 124.5 0.1 159 8.4
2010-10-27 06:11:35 51°13.664 2°55.962 124.5 0.1 279 8.4
2010-10-27 06:11:39 51°13.664 2°55.962 124.4 0.1 343 8.4
2010-10-27 06:11:44 51°13.664 2°55.961 124.3 0.1 313 8.3
2010-10-27 06:11:49 51°13.664 2°55.961 124.2 -999 327 8.5
2010-10-27 06:11:54 51°13.663 2°55.962 124.2 0.1 129 8.4
2010-10-27 06:11:59 51°13.664 2°55.962 124.2 -999 78 8.4
2010-10-27 06:12:03 51°13.664 2°55.961 124.2 -999 357 8.4
2010-10-27 06:12:08 51°13.663 2°55.961 124.2 -999 172 8.3
2010-10-27 06:12:13 51°13.663 2°55.961 124.1 0.1 187 8.3
2010-10-27 06:12:18 51°13.663 2°55.961 124.1 0.1 182 8.4
2010-10-27 06:12:24 51°13.663 2°55.961 123.9 0.1 181 -999
2010-10-27 06:12:29 51°13.663 2°55.961 123.7 0.1 169 8.4
2010-10-27 06:12:35 51°13.664 2°55.961 123.6 -999 36 8.6
2010-10-27 06:12:39 51°13.663 2°55.961 123.5 -999 51 8.3
2010-10-27 06:12:44 51°13.663 2°55.96 123.5 0.2 352 8.4
2010-10-27 06:12:49 51°13.663 2°55.96 123.5 -999 8 8.4
2010-10-27 06:12:54 51°13.663 2°55.96 123.5 0.1 334 8.3
2010-10-27 06:12:59 51°13.663 2°55.96 123.5 -999 272 8.3
2010-10-27 06:13:03 51°13.663 2°55.96 123.5 -999 120 8.3
2010-10-27 06:13:08 51°13.663 2°55.961 123.5 0.1 353 8.3
2010-10-27 06:13:13 51°13.664 2°55.96 123.5 0.2 348 8.3
2010-10-27 06:13:19 51°13.663 2°55.961 123.5 0.1 150 8.3
2010-10-27 06:13:23 51°13.663 2°55.961 123.5 -999 52 8.4
2010-10-27 06:13:28 51°13.664 2°55.96 123.6 0.1 356 8.3
2010-10-27 06:13:33 51°13.664 2°55.96 123.6 0.2 339 8.3
2010-10-27 06:13:38 51°13.664 2°55.96 123.6 0.1 2 8.3
2010-10-27 06:13:43 51°13.664 2°55.96 123.5 -999 354 8.4
2010-10-27 06:13:48 51°13.664 2°55.96 123.5 0.1 353 8.3
2010-10-27 06:13:53 51°13.664 2°55.96 123.4 -999 187 8.3
2010-10-27 06:13:59 51°13.664 2°55.96 123.4 -999 181 8.3
2010-10-27 06:14:03 51°13.664 2°55.96 123.4 -999 156 8.3
2010-10-27 06:14:08 51°13.665 2°55.96 123.4 0.1 344 8.3
2010-10-27 06:14:13 51°13.665 2°55.959 123.4 0.1 341 8.3
2010-10-27 06:14:19 51°13.665 2°55.959 123.4 -999 359 8.3
2010-10-27 06:14:23 51°13.664 2°55.959 123.4 -999 141 8.2
2010-10-27 06:14:28 51°13.664 2°55.96 123.4 0.1 149 8.2
2010-10-27 06:14:33 51°13.664 2°55.959 123.4 0.1 181 8.3
2010-10-27 06:14:38 51°13.664 2°55.959 123.4 -999 332 8.3
2010-10-27 06:14:43 51°13.665 2°55.959 123.4 0.1 349 8.3
2010-10-27 06:14:48 51°13.664 2°55.959 123.4 0.1 165 8.3
2010-10-27 06:14:53 51°13.664 2°55.959 123.4 0.1 126 8.4
2010-10-27 06:14:58 51°13.664 2°55.959 123.5 0.1 93 8.3
2010-10-27 06:15:03 51°13.664 2°55.959 123.8 0.1 117 8.2
2010-10-27 06:15:08 51°13.664 2°55.96 124.3 0.2 153 8.2
2010-10-27 06:15:13 51°13.664 2°55.96 125 -999 1 8.3
2010-10-27 06:15:18 51°13.664 2°55.96 125.8 0.1 183 8.3
2010-10-27 06:15:23 51°13.663 2°55.96 126.4 0.1 140 8.3
2010-10-27 06:15:28 51°13.663 2°55.96 127 0.1 166 8.3
2010-10-27 06:15:33 51°13.663 2°55.96 127.1 0.2 152 8.3
2010-10-27 06:15:39 51°13.664 2°55.96 127.3 0.1 153 8.4
2010-10-27 06:15:43 51°13.664 2°55.96 127.4 -999 8 8.3
2010-10-27 06:15:48 51°13.664 2°55.96 127.4 -999 101 8.3
2010-10-27 06:15:54 51°13.664 2°55.961 127.2 0.1 157 8.3
2010-10-27 06:15:59 51°13.664 2°55.961 127.2 -999 150 8.4
2010-10-27 06:16:03 51°13.663 2°55.961 127.2 -999 197 8.3
2010-10-27 06:16:08 51°13.664 2°55.961 127.2 0.1 336 8.3
2010-10-27 06:16:13 51°13.664 2°55.961 127.2 -999 145 8.3
2010-10-27 06:16:19 51°13.664 2°55.961 127.2 0.1 153 8.3
2010-10-27 06:16:23 51°13.664 2°55.961 127.2 -999 342 8.3
2010-10-27 06:16:28 51°13.664 2°55.961 127.2 -999 336 8.3
2010-10-27 06:16:33 51°13.665 2°55.961 127.2 0.1 339 8.3
2010-10-27 06:16:38 51°13.665 2°55.961 127.2 -999 135 8.3
2010-10-27 06:16:43 51°13.664 2°55.961 127.2 0.1 145 8.3
2010-10-27 06:16:48 51°13.665 2°55.961 127.2 0.1 337 8.2
2010-10-27 06:16:53 51°13.665 2°55.96 127.2 -999 153 8.2
2010-10-27 06:16:58 51°13.665 2°55.96 127.2 -999 317 8.2
2010-10-27 06:17:03 51°13.665 2°55.961 127.2 -999 316 8.3
2010-10-27 06:17:08 51°13.665 2°55.96 127.2 0.1 333 8.3
2010-10-27 06:17:13 51°13.665 2°55.961 127.2 -999 104 8.3
2010-10-27 06:17:18 51°13.665 2°55.961 127.2 -999 71 8.3
2010-10-27 06:17:23 51°13.665 2°55.961 127.2 0.1 338 8.2
2010-10-27 06:17:28 51°13.665 2°55.961 127.2 -999 305 8.2
2010-10-27 06:17:33 51°13.664 2°55.961 127.2 0.1 160 8.3
2010-10-27 06:17:38 51°13.664 2°55.96 127.2 0.1 248 6.1
2010-10-27 06:17:43 51°13.664 2°55.96 127.2 0.1 228 8.2
2010-10-27 06:17:48 51°13.664 2°55.96 127.2 -999 318 8.2
2010-10-27 06:17:53 51°13.663 2°55.96 127.2 -999 222 8.2
2010-10-27 06:17:59 51°13.663 2°55.96 127.2 -999 335 8.2
2010-10-27 06:18:03 51°13.663 2°55.96 127.2 -999 176 8.2
2010-10-27 06:18:08 51°13.663 2°55.96 127.2 0.1 131 8.2
2010-10-27 06:18:13 51°13.663 2°55.96 127.3 0.1 319 8.3
2010-10-27 06:18:18 51°13.663 2°55.96 127.3 -999 159 8.2
2010-10-27 06:18:23 51°13.663 2°55.96 127.3 -999 103 8.3
2010-10-27 06:18:28 51°13.663 2°55.96 127.3 -999 127 8.3
2010-10-27 06:18:33 51°13.663 2°55.96 127.3 0.1 328 8.2
2010-10-27 06:18:39 51°13.663 2°55.96 127.3 -999 254 8.3
2010-10-27 06:18:43 51°13.663 2°55.96 127.3 -999 29 8.2
2010-10-27 06:18:48 51°13.663 2°55.96 127.3 -999 336 8.3
2010-10-27 06:18:53 51°13.663 2°55.96 127.3 -999 189 8.2
2010-10-27 06:18:58 51°13.663 2°55.96 127.3 -999 224 8.2
2010-10-27 06:19:03 51°13.663 2°55.96 127.4 -999 270 8.2
2010-10-27 06:19:08 51°13.663 2°55.96 127.4 -999 103 8.3
2010-10-27 06:19:13 51°13.663 2°55.96 127.4 0.1 318 8.2
2010-10-27 06:19:18 51°13.663 2°55.96 127.4 -999 136 8.3
2010-10-27 06:19:23 51°13.663 2°55.96 127.4 -999 104 8.3
2010-10-27 06:19:28 51°13.663 2°55.96 127.5 -999 179 8.3
2010-10-27 06:19:33 51°13.663 2°55.96 127.6 0.1 -999 8.3
2010-10-27 06:19:38 51°13.663 2°55.961 127.6 -999 346 8.2
2010-10-27 06:19:43 51°13.663 2°55.961 127.6 0.1 64 8.2
2010-10-27 06:19:48 51°13.663 2°55.961 127.4 0.1 80 8.2
2010-10-27 06:19:53 51°13.663 2°55.961 126.9 0.1 6 8.2
2010-10-27 06:19:58 51°13.663 2°55.961 126.1 0.1 16 8.1
2010-10-27 06:20:03 51°13.663 2°55.961 125.2 0.1 52 8.1
2010-10-27 06:20:08 51°13.662 2°55.961 124.2 0.1 154 8.4
2010-10-27 06:20:14 51°13.663 2°55.961 123.3 -999 194 8.1
2010-10-27 06:20:18 51°13.663 2°55.961 122.7 0.1 175 8.2
2010-10-27 06:20:22 51°13.663 2°55.961 122.1 -999 146 8.2
2010-10-27 06:20:28 51°13.662 2°55.961 121.3 0.1 182 8.2
2010-10-27 06:20:33 51°13.662 2°55.96 120.5 0.1 229 8.2
2010-10-27 06:20:38 51°13.662 2°55.961 119.5 0.2 159 8.1
2010-10-27 06:20:43 51°13.662 2°55.961 118.4 0.2 165 8.1
2010-10-27 06:20:48 51°13.662 2°55.96 117.6 0.1 206 8.2
2010-10-27 06:20:53 51°13.662 2°55.96 116.6 -999 232 8.2
2010-10-27 06:20:58 51°13.662 2°55.96 115.6 -999 221 8.1
2010-10-27 06:21:02 51°13.662 2°55.96 114.7 0.1 244 8.1
2010-10-27 06:21:08 51°13.662 2°55.96 113.7 0.1 191 8.2
2010-10-27 06:21:13 51°13.661 2°55.96 112.9 0.2 172 8.2
2010-10-27 06:21:18 51°13.661 2°55.96 112 0.1 170 8.2
2010-10-27 06:21:23 51°13.661 2°55.961 111.2 0.1 160 8.1
2010-10-27 06:21:28 51°13.66 2°55.961 110.4 0.1 222 8.1
2010-10-27 06:21:33 51°13.66 2°55.961 109.7 0.2 352 8.1
2010-10-27 06:21:37 51°13.66 2°55.961 109.1 0.2 350 8.2
2010-10-27 06:21:43 51°13.66 2°55.961 108.7 0.2 329 8.2
2010-10-27 06:21:48 51°13.66 2°55.959 108.6 0.4 305 8.2
2010-10-27 06:21:53 51°13.661 2°55.959 108.5 0.6 302 8.2
2010-10-27 06:21:58 51°13.661 2°55.957 108.5 0.8 294 8.3
2010-10-27 06:22:03 51°13.661 2°55.955 108.6 0.9 291 8.3
2010-10-27 06:22:08 51°13.662 2°55.952 108.9 1.4 294 8.2
2010-10-27 06:22:13 51°13.663 2°55.949 109 1.7 296 8.1
2010-10-27 06:22:19 51°13.665 2°55.944 109 2 295 5.8
2010-10-27 06:22:24 51°13.666 2°55.94 109 2.2 294 -999
2010-10-27 06:22:30 51°13.668 2°55.934 109.1 2.5 295 -999
2010-10-27 06:22:35 51°13.669 2°55.928 109.1 2.8 294 -999
2010-10-27 06:22:41 51°13.671 2°55.921 109.1 3 296 -999
2010-10-27 06:22:47 51°13.674 2°55.913 109.3 3.2 295 -999
2010-10-27 06:22:52 51°13.676 2°55.907 109.3 3.3 294 -999
2010-10-27 06:22:57 51°13.678 2°55.899 109.4 3.6 295 -999
2010-10-27 06:23:02 51°13.68 2°55.892 109.4 3.7 295 -999
2010-10-27 06:23:07 51°13.682 2°55.884 109.3 3.8 295 -999
2010-10-27 06:23:12 51°13.685 2°55.877 109 3.7 294 -999
2010-10-27 06:23:17 51°13.687 2°55.869 108.5 3.7 293 -999
2010-10-27 06:23:22 51°13.689 2°55.862 107 3.7 293 -999
2010-10-27 06:23:27 51°13.691 2°55.854 105.4 3.7 292 -999
2010-10-27 06:23:32 51°13.693 2°55.846 103.8 3.8 291 -999
2010-10-27 06:23:37 51°13.694 2°55.839 101.6 3.7 288 -999
2010-10-27 06:23:42 51°13.695 2°55.831 98.7 3.6 284 -999
2010-10-27 06:23:47 51°13.697 2°55.823 96 3.6 283 -999
2010-10-27 06:23:52 51°13.697 2°55.816 94 3.5 280 -999
2010-10-27 06:23:57 51°13.698 2°55.808 91.1 3.5 280 -999
2010-10-27 06:24:02 51°13.699 2°55.8 89 3.4 276 -999
2010-10-27 06:24:07 51°13.699 2°55.793 87.2 3.3 273 -999
2010-10-27 06:24:12 51°13.699 2°55.786 85 3.3 272 -999
2010-10-27 06:24:17 51°13.698 2°55.779 81.6 3.2 269 -999
2010-10-27 06:24:22 51°13.698 2°55.772 78.8 3.2 266 -999
2010-10-27 06:24:27 51°13.698 2°55.765 76.5 3.2 264 -999
2010-10-27 06:24:32 51°13.697 2°55.758 74.1 3.1 259 -999
2010-10-27 06:24:37 51°13.696 2°55.752 72 3 256 -999
2010-10-27 06:24:42 51°13.695 2°55.746 71 2.8 256 14
2010-10-27 06:24:47 51°13.695 2°55.74 70.7 2.4 260 -999
2010-10-27 06:24:52 51°13.694 2°55.736 70.8 1.8 260 -999
2010-10-27 06:24:57 51°13.695 2°55.734 70.1 1.1 276 -999
2010-10-27 06:25:02 51°13.695 2°55.733 66.8 0.6 288 -999
2010-10-27 06:25:07 51°13.696 2°55.732 62.7 0.6 338 -999
2010-10-27 06:25:12 51°13.696 2°55.733 58.9 0.6 17 -999
2010-10-27 06:25:17 51°13.698 2°55.734 53.7 1 24 -999
2010-10-27 06:25:22 51°13.7 2°55.735 48 1.5 35 13.5
2010-10-27 06:25:27 51°13.702 2°55.737 42.9 1.9 23 13.4
2010-10-27 06:25:31 51°13.704 2°55.739 37.1 2.1 30 13.1
2010-10-27 06:25:36 51°13.707 2°55.741 32.1 2.1 21 13.3
2010-10-27 06:25:41 51°13.71 2°55.742 26.2 1.9 23 13.4
2010-10-27 06:25:46 51°13.712 2°55.743 22.5 1.6 16 14
2010-10-27 06:25:51 51°13.714 2°55.744 20.1 1.3 18 14.1
2010-10-27 06:25:55 51°13.714 2°55.745 17.6 0.8 22 13.7
2010-10-27 06:26:00 51°13.715 2°55.745 15 0.4 9 13.5
2010-10-27 06:26:05 51°13.715 2°55.745 12.9 -999 292 13.4
2010-10-27 06:26:10 51°13.715 2°55.745 11.6 0.4 191 13.4
2010-10-27 06:26:15 51°13.714 2°55.745 10.5 0.6 194 13.6
2010-10-27 06:26:19 51°13.713 2°55.745 9.4 0.8 189 14
2010-10-27 06:26:25 51°13.711 2°55.744 8.4 1 188 -999
2010-10-27 06:26:31 51°13.709 2°55.744 7 1 188 -999
2010-10-27 06:26:36 51°13.708 2°55.743 5.9 0.8 193 -999
2010-10-27 06:26:42 51°13.708 2°55.743 5.2 0.2 6 -999
2010-10-27 06:26:47 51°13.71 2°55.743 3.8 1 359 -999
2010-10-27 06:26:52 51°13.712 2°55.743 357.1 1.5 350 -999
2010-10-27 06:26:57 51°13.715 2°55.742 350.5 1.9 349 -999
2010-10-27 06:27:02 51°13.718 2°55.74 344.9 2.4 341 -999
2010-10-27 06:27:07 51°13.721 2°55.738 339 2.8 339 6
2010-10-27 06:27:11 51°13.725 2°55.736 334.6 3.2 335 13.1
2010-10-27 06:27:16 51°13.729 2°55.732 332.5 3.6 334 12.7
2010-10-27 06:27:21 51°13.734 2°55.728 330.2 4.3 331 12.4
2010-10-27 06:27:26 51°13.74 2°55.723 328.8 4.7 330 12.1
2010-10-27 06:27:31 51°13.746 2°55.717 328.1 4.9 329 11.9
2010-10-27 06:27:35 51°13.751 2°55.712 327.5 5.3 328 11.8
2010-10-27 06:27:41 51°13.759 2°55.704 327.3 5.5 328 10.9
2010-10-27 06:27:45 51°13.764 2°55.698 327.3 5.9 328 10.9
2010-10-27 06:27:50 51°13.772 2°55.691 327.7 6.2 328 11.4
2010-10-27 06:27:55 51°13.779 2°55.684 328.6 6.3 329 11.7
2010-10-27 06:28:00 51°13.787 2°55.677 329.4 6.6 330 11.6
2010-10-27 06:28:05 51°13.796 2°55.669 329.8 7 331 11.8
2010-10-27 06:28:10 51°13.804 2°55.661 330.5 7.2 331 12
2010-10-27 06:28:15 51°13.813 2°55.654 331 7.4 332 11.7
2010-10-27 06:28:19 51°13.821 2°55.647 331.1 7.6 331 11.4
2010-10-27 06:28:24 51°13.83 2°55.639 331.1 7.8 332 11.9
2010-10-27 06:28:29 51°13.84 2°55.631 331.5 8 333 11.9
2010-10-27 06:28:34 51°13.85 2°55.623 332 8.2 332 11.9
2010-10-27 06:28:39 51°13.86 2°55.615 332.1 8.3 333 12
2010-10-27 06:28:43 51°13.869 2°55.608 332.5 8.4 333 11.8
2010-10-27 06:28:49 51°13.882 2°55.598 333.5 8.6 335 11.7
2010-10-27 06:28:54 51°13.893 2°55.59 334.1 8.8 335 11
2010-10-27 06:28:59 51°13.904 2°55.581 334.4 8.9 335 11.6
2010-10-27 06:29:03 51°13.913 2°55.575 335 8.9 336 11.3
2010-10-27 06:29:08 51°13.924 2°55.567 335.1 9 335 11
2010-10-27 06:29:13 51°13.936 2°55.559 335.3 9.2 336 11.1
2010-10-27 06:29:19 51°13.95 2°55.548 335.4 9.4 336 10.9
2010-10-27 06:29:23 51°13.959 2°55.542 335.4 9.3 336 10.8
2010-10-27 06:29:28 51°13.971 2°55.533 335.5 9.5 336 11.1
2010-10-27 06:29:33 51°13.983 2°55.525 335.9 9.4 336 11
2010-10-27 06:29:39 51°13.997 2°55.515 336 9.5 336 10.8
2010-10-27 06:29:44 51°14.01 2°55.506 335.6 9.5 336 -999
2010-10-27 06:29:49 51°14.022 2°55.497 335.3 9.8 336 10.6
2010-10-27 06:29:54 51°14.034 2°55.489 335.4 9.6 337 10.4
2010-10-27 06:29:59 51°14.046 2°55.48 335.7 9.5 336 10.5
2010-10-27 06:30:04 51°14.058 2°55.472 336.4 9.6 338 -999
2010-10-27 06:30:10 51°14.073 2°55.462 337.1 9.7 337 -999
2010-10-27 06:30:15 51°14.086 2°55.453 336.4 9.9 336 -999
2010-10-27 06:30:21 51°14.101 2°55.443 336.8 9.9 338 -999
2010-10-27 06:30:27 51°14.117 2°55.433 337.7 10 337 -999
2010-10-27 06:30:32 51°14.129 2°55.425 337.5 10 337 -999
2010-10-27 06:30:37 51°14.142 2°55.416 337.5 9.9 337 -999
2010-10-27 06:30:42 51°14.154 2°55.407 337.2 10 336 -999
2010-10-27 06:30:47 51°14.167 2°55.398 336.6 10.1 336 -999
2010-10-27 06:30:52 51°14.18 2°55.389 336.3 10.1 335 -999
2010-10-27 06:30:57 51°14.193 2°55.379 335 10.2 334 -999
2010-10-27 06:31:02 51°14.206 2°55.369 334.2 10.2 333 10.3
2010-10-27 06:31:07 51°14.218 2°55.358 333.7 10.4 332 10.3
2010-10-27 06:31:11 51°14.229 2°55.349 332.8 10.5 330 10.4
2010-10-27 06:31:16 51°14.241 2°55.337 330.9 10.5 329 10.2
2010-10-27 06:31:21 51°14.253 2°55.325 329.1 10.6 329 10.2
2010-10-27 06:31:26 51°14.266 2°55.313 328.8 10.5 329 10.3
2010-10-27 06:31:31 51°14.278 2°55.3 328.6 10.8 327 10.1
2010-10-27 06:31:35 51°14.288 2°55.29 327.4 10.8 328 10.1
2010-10-27 06:31:41 51°14.304 2°55.274 327.5 11 328 -999
2010-10-27 06:31:46 51°14.317 2°55.26 327.3 11.3 326 10.4
2010-10-27 06:31:51 51°14.33 2°55.247 326 11.5 327 -999
2010-10-27 06:31:57 51°14.346 2°55.23 326.2 11.6 328 10.3
2010-10-27 06:32:02 51°14.36 2°55.217 327.8 11.5 328 -999
2010-10-27 06:32:07 51°14.373 2°55.204 328 11.5 328 -999
2010-10-27 06:32:12 51°14.387 2°55.19 328.5 11.7 329 -999
2010-10-27 06:32:17 51°14.401 2°55.177 328.5 11.6 327 -999
2010-10-27 06:32:22 51°14.414 2°55.164 328.3 11.6 328 -999
2010-10-27 06:32:27 51°14.428 2°55.149 327.8 11.8 327 -999
2010-10-27 06:32:32 51°14.442 2°55.135 328.2 11.9 328 -999
2010-10-27 06:32:37 51°14.457 2°55.12 327.8 12.2 326 10.6
2010-10-27 06:32:42 51°14.471 2°55.106 327.1 12.1 327 10.2
2010-10-27 06:32:47 51°14.485 2°55.09 326.8 12.3 325 10.8
2010-10-27 06:32:51 51°14.496 2°55.08 326.5 12.2 328 10.9
2010-10-27 06:32:56 51°14.511 2°55.065 326.8 12.5 327 10.8
2010-10-27 06:33:01 51°14.526 2°55.049 326.8 12.8 327 11
2010-10-27 06:33:06 51°14.541 2°55.034 326.3 12.6 326 11.1
2010-10-27 06:33:11 51°14.554 2°55.017 326.3 12.6 323 11.3
2010-10-27 06:33:15 51°14.565 2°55.001 325.4 13 319 11.6
2010-10-27 06:33:20 51°14.579 2°54.982 323.1 13.2 320 11.9
2010-10-27 06:33:25 51°14.594 2°54.964 322.5 13.3 322 11.6
2010-10-27 06:33:30 51°14.608 2°54.947 323.6 13.2 322 11.4
2010-10-27 06:33:35 51°14.623 2°54.929 324.9 13.2 325 11.5
2010-10-27 06:33:40 51°14.637 2°54.912 326 13.3 324 11.3
2010-10-27 06:33:44 51°14.65 2°54.898 326.3 13.4 324 11.6
2010-10-27 06:33:49 51°14.664 2°54.879 325.5 13.4 322 11.5
2010-10-27 06:33:55 51°14.682 2°54.858 324.4 13.5 324 11.7
2010-10-27 06:33:59 51°14.694 2°54.844 324.9 13.5 324 11.6
2010-10-27 06:34:04 51°14.709 2°54.827 325.2 13.5 324 11.6
2010-10-27 06:34:09 51°14.724 2°54.809 325.1 13.7 322 -999
2010-10-27 06:34:15 51°14.742 2°54.787 324.3 13.7 322 11.3
2010-10-27 06:34:20 51°14.757 2°54.768 324.2 13.6 322 11.7
2010-10-27 06:34:24 51°14.769 2°54.754 324.1 13.5 323 11.4
2010-10-27 06:34:29 51°14.784 2°54.737 324.3 13.6 324 11.5
2010-10-27 06:34:34 51°14.799 2°54.719 324.7 13.6 323 11.6
2010-10-27 06:34:39 51°14.814 2°54.701 324.7 13.5 324 11.3
2010-10-27 06:34:44 51°14.829 2°54.683 324.8 13.5 323 11.8
2010-10-27 06:34:49 51°14.844 2°54.666 324.9 13.4 324 11.5
2010-10-27 06:34:54 51°14.859 2°54.648 324.8 13.5 324 11.5
2010-10-27 06:34:59 51°14.874 2°54.63 325.1 13.5 323 -999
2010-10-27 06:35:05 51°14.892 2°54.61 324.5 13.5 324 11.5
2010-10-27 06:35:11 51°14.911 2°54.589 324.9 13.5 325 -999
2010-10-27 06:35:16 51°14.926 2°54.572 325.1 13.4 325 -999
2010-10-27 06:35:22 51°14.944 2°54.551 325.2 13.3 324 12.8
2010-10-27 06:35:27 51°14.959 2°54.534 325.1 13.2 322 10.1
2010-10-27 06:35:31 51°14.97 2°54.52 324 13.1 323 10.1
2010-10-27 06:35:36 51°14.985 2°54.503 323.3 13.1 323 10
2010-10-27 06:35:41 51°15 2°54.485 323.3 13.3 323 9.9
2010-10-27 06:35:46 51°15.015 2°54.467 322.9 13.3 324 10.3
2010-10-27 06:35:51 51°15.03 2°54.45 323.1 13.4 323 10.5
2010-10-27 06:35:55 51°15.042 2°54.435 323.2 13.5 324 10.2
2010-10-27 06:36:00 51°15.057 2°54.418 323 13.4 324 10.1
2010-10-27 06:36:05 51°15.072 2°54.401 323.6 13.5 324 10.2
2010-10-27 06:36:10 51°15.087 2°54.384 323.8 13.4 325 10.2
2010-10-27 06:36:15 51°15.102 2°54.367 324 13.4 325 10.2
2010-10-27 06:36:20 51°15.117 2°54.35 324.1 13.3 324 10.1
2010-10-27 06:36:24 51°15.129 2°54.336 324 13.4 325 10.4
2010-10-27 06:36:29 51°15.144 2°54.318 323.9 13.5 324 10.3
2010-10-27 06:36:34 51°15.16 2°54.301 323.7 13.6 325 10.3
2010-10-27 06:36:39 51°15.175 2°54.284 323.8 13.5 324 10.5
2010-10-27 06:36:44 51°15.19 2°54.267 323.8 13.4 324 10.5
2010-10-27 06:36:49 51°15.206 2°54.249 323.5 13.5 324 10.1
2010-10-27 06:36:54 51°15.221 2°54.232 323.7 13.6 325 10.4
2010-10-27 06:36:59 51°15.236 2°54.215 323.8 13.5 325 10.6
2010-10-27 06:37:03 51°15.249 2°54.201 324.1 13.6 325 10.8
2010-10-27 06:37:07 51°15.261 2°54.186 323.7 13.6 323 10.2
2010-10-27 06:37:13 51°15.279 2°54.166 323.6 13.6 325 10.5
2010-10-27 06:37:18 51°15.294 2°54.148 323.7 13.5 324 10.6
2010-10-27 06:37:23 51°15.31 2°54.131 323.8 13.4 325 10.6
2010-10-27 06:37:28 51°15.325 2°54.113 323.8 13.5 324 10.7
2010-10-27 06:37:33 51°15.34 2°54.096 323.4 13.5 324 10.4
2010-10-27 06:37:38 51°15.354 2°54.077 323 13.4 321 10.6
2010-10-27 06:37:43 51°15.369 2°54.059 321.9 13.4 322 10.9
2010-10-27 06:37:48 51°15.384 2°54.04 321.5 13.6 321 10.4
2010-10-27 06:37:53 51°15.399 2°54.022 321.5 13.4 321 10.6
2010-10-27 06:37:58 51°15.413 2°54.003 321.5 13.4 321 10.7
2010-10-27 06:38:03 51°15.428 2°53.984 321.6 13.4 321 10.6
2010-10-27 06:38:08 51°15.442 2°53.966 321.6 13.5 321 10.9
2010-10-27 06:38:14 51°15.46 2°53.944 321.7 13.4 322 10.9
2010-10-27 06:38:19 51°15.474 2°53.925 322.2 13.4 321 10.9
2010-10-27 06:38:23 51°15.486 2°53.911 321.9 13.4 322 11.1
2010-10-27 06:38:28 51°15.5 2°53.892 322.3 13.4 321 10.9
2010-10-27 06:38:33 51°15.515 2°53.874 322 13.5 321 11
2010-10-27 06:38:39 51°15.532 2°53.851 321.5 13.4 320 11.2
2010-10-27 06:38:43 51°15.544 2°53.837 321.5 13.3 321 11
2010-10-27 06:38:48 51°15.559 2°53.818 321.9 13.4 321 11.2
2010-10-27 06:38:53 51°15.573 2°53.8 321.9 13.4 322 11.1
2010-10-27 06:38:59 51°15.59 2°53.777 322.4 13.4 321 11.1
2010-10-27 06:39:03 51°15.602 2°53.763 322.3 13.4 321 11.2
2010-10-27 06:39:08 51°15.616 2°53.745 322.8 13.4 322 11.5
2010-10-27 06:39:13 51°15.631 2°53.726 322.6 13.3 323 11
2010-10-27 06:39:18 51°15.645 2°53.709 323 13.3 323 11.4
2010-10-27 06:39:23 51°15.66 2°53.69 322.8 13.3 321 11.3
2010-10-27 06:39:28 51°15.675 2°53.672 323.1 13.4 322 11.3
2010-10-27 06:39:33 51°15.689 2°53.653 323.1 13.4 322 11.2
2010-10-27 06:39:38 51°15.704 2°53.636 323.2 13.3 322 11.7
2010-10-27 06:39:43 51°15.718 2°53.618 323.5 13.2 323 11.5
2010-10-27 06:39:48 51°15.733 2°53.599 323.7 13.3 321 11.6
2010-10-27 06:39:53 51°15.748 2°53.581 323 13.4 322 11.2
2010-10-27 06:39:58 51°15.762 2°53.563 323.1 13.4 322 11.6
2010-10-27 06:40:03 51°15.777 2°53.545 323.3 13.4 322 11.4
2010-10-27 06:40:08 51°15.791 2°53.527 323.5 13.3 323 11.6
2010-10-27 06:40:13 51°15.807 2°53.511 325 13.3 325 11.8
2010-10-27 06:40:18 51°15.823 2°53.493 325.8 13.5 326 11.9
2010-10-27 06:40:23 51°15.838 2°53.476 326.9 13.5 326 11.5
2010-10-27 06:40:28 51°15.854 2°53.46 327.5 13.5 328 11.4
2010-10-27 06:40:33 51°15.869 2°53.445 328.4 13.4 327 11.6
2010-10-27 06:40:39 51°15.888 2°53.426 328.7 13.5 329 11.5
2010-10-27 06:40:43 51°15.9 2°53.414 329.3 13.6 329 11.2
2010-10-27 06:40:48 51°15.916 2°53.399 329.8 13.4 331 11.8
2010-10-27 06:40:53 51°15.932 2°53.383 329.6 13.3 328 11.5
2010-10-27 06:40:59 51°15.951 2°53.366 329.9 13.3 330 11.5
2010-10-27 06:41:03 51°15.964 2°53.354 329.9 13.2 328 11.8
2010-10-27 06:41:08 51°15.98 2°53.339 330.2 13.3 330 11.3
2010-10-27 06:41:13 51°15.995 2°53.324 329.9 13.2 329 11.3
2010-10-27 06:41:18 51°16.012 2°53.309 330 13.5 330 11.8
2010-10-27 06:41:23 51°16.028 2°53.294 329.9 13.5 330 11.6
2010-10-27 06:41:28 51°16.044 2°53.278 329.9 13.5 329 11.6
2010-10-27 06:41:33 51°16.059 2°53.264 329.8 13.4 330 11.5
2010-10-27 06:41:38 51°16.076 2°53.249 329.7 13.5 329 11.6
2010-10-27 06:41:43 51°16.092 2°53.233 329.7 13.5 329 11.9
2010-10-27 06:41:48 51°16.108 2°53.221 331.5 13.3 333 11.7
2010-10-27 06:41:53 51°16.124 2°53.205 331.7 13.3 330 11.6
2010-10-27 06:41:58 51°16.141 2°53.193 333.2 13.4 334 11.9
2010-10-27 06:42:03 51°16.158 2°53.179 333.4 13.5 331 11.7
2010-10-27 06:42:08 51°16.174 2°53.166 334.3 13.4 334 11.9
2010-10-27 06:42:13 51°16.19 2°53.152 334.7 13.5 334 11.8
2010-10-27 06:42:18 51°16.207 2°53.14 334.3 13.5 334 11.7
2010-10-27 06:42:23 51°16.224 2°53.127 334.5 13.5 334 11.6
2010-10-27 06:42:28 51°16.241 2°53.114 334.8 13.5 335 11.8
2010-10-27 06:42:33 51°16.258 2°53.101 335.5 13.5 334 11.9
2010-10-27 06:42:38 51°16.275 2°53.089 334.8 13.5 335 11.7
2010-10-27 06:42:43 51°16.292 2°53.076 335.3 13.5 335 11.8
2010-10-27 06:42:48 51°16.309 2°53.064 335.4 13.5 336 11.8
2010-10-27 06:42:53 51°16.326 2°53.051 335.5 13.6 334 11.8
2010-10-27 06:42:59 51°16.346 2°53.037 335.4 13.5 336 11.8
2010-10-27 06:43:03 51°16.36 2°53.026 335.4 13.4 335 11.9
2010-10-27 06:43:08 51°16.376 2°53.013 334.8 13.4 335 11.8
2010-10-27 06:43:13 51°16.393 2°53.001 335 13.5 335 11.9
2010-10-27 06:43:19 51°16.414 2°52.986 334.7 13.3 335 11.5
2010-10-27 06:43:23 51°16.427 2°52.977 334.9 13.3 335 11.8
2010-10-27 06:43:28 51°16.445 2°52.964 335.3 13.4 335 11.7
2010-10-27 06:43:33 51°16.461 2°52.951 334.7 13.4 335 11.9
2010-10-27 06:43:38 51°16.478 2°52.938 334.5 13.5 335 12
2010-10-27 06:43:43 51°16.495 2°52.926 334.4 13.5 334 11.7
2010-10-27 06:43:48 51°16.512 2°52.914 334.8 13.4 336 11.8
2010-10-27 06:43:53 51°16.529 2°52.901 334.7 13.5 335 11.5
2010-10-27 06:43:58 51°16.545 2°52.888 334.9 13.5 335 11.6
2010-10-27 06:44:03 51°16.562 2°52.875 334.7 13.5 334 11.5
2010-10-27 06:44:08 51°16.579 2°52.862 334.5 13.4 334 11.6
2010-10-27 06:44:13 51°16.596 2°52.849 334.1 13.4 333 11.6
2010-10-27 06:44:18 51°16.613 2°52.837 334 13.4 334 11.4
2010-10-27 06:44:23 51°16.629 2°52.823 334.4 13.4 334 11.3
2010-10-27 06:44:28 51°16.646 2°52.81 334.7 13.3 335 11
2010-10-27 06:44:33 51°16.662 2°52.797 334.6 13.4 335 11.3
2010-10-27 06:44:38 51°16.679 2°52.785 334.8 13.2 335 10.9
2010-10-27 06:44:43 51°16.696 2°52.773 334.8 13.2 334 10.9
2010-10-27 06:44:48 51°16.713 2°52.761 334.9 13.3 336 10.7
2010-10-27 06:44:53 51°16.73 2°52.749 335 13.3 336 10.3
2010-10-27 06:44:59 51°16.75 2°52.734 335.1 13.2 335 9.8
2010-10-27 06:45:03 51°16.763 2°52.724 334.7 13.3 336 9.8
2010-10-27 06:45:08 51°16.78 2°52.712 334.7 13.3 334 9.5
2010-10-27 06:45:13 51°16.796 2°52.699 334.5 13.2 335 9.7
2010-10-27 06:45:18 51°16.813 2°52.687 334.2 13.1 335 10.1
2010-10-27 06:45:23 51°16.83 2°52.674 334.3 13.3 335 9.2
2010-10-27 06:45:28 51°16.846 2°52.662 334 13.3 334 9.3
2010-10-27 06:45:33 51°16.863 2°52.648 333.3 13.2 333 9.4
2010-10-27 06:45:39 51°16.883 2°52.632 333.4 13.3 334 9.3
2010-10-27 06:45:43 51°16.896 2°52.622 333.7 13.4 333 9.7
2010-10-27 06:45:48 51°16.913 2°52.609 334 13.5 334 9.9
2010-10-27 06:45:53 51°16.93 2°52.596 333.9 13.5 334 9.8
2010-10-27 06:45:58 51°16.947 2°52.584 334.1 13.6 336 9.9
2010-10-27 06:46:03 51°16.964 2°52.572 334.4 13.4 335 10
2010-10-27 06:46:08 51°16.98 2°52.559 334.6 13.4 336 9.7
2010-10-27 06:46:13 51°16.997 2°52.547 335 13.2 334 9.7
2010-10-27 06:46:18 51°17.014 2°52.534 334.3 13.3 335 9.7
2010-10-27 06:46:23 51°17.031 2°52.521 334 13.5 335 9.6
2010-10-27 06:46:28 51°17.048 2°52.509 334.3 13.5 336 9.5
2010-10-27 06:46:33 51°17.064 2°52.496 334.6 13.5 334 9.5
2010-10-27 06:46:38 51°17.081 2°52.483 334.5 13.4 335 9.6
2010-10-27 06:46:43 51°17.098 2°52.47 334.2 13.5 334 9.8
2010-10-27 06:46:48 51°17.115 2°52.458 334 13.2 335 9.6
2010-10-27 06:46:53 51°17.131 2°52.445 334.2 13.3 335 10.1
2010-10-27 06:46:58 51°17.148 2°52.432 334.1 13.3 334 9.6
2010-10-27 06:47:03 51°17.165 2°52.419 334.4 13.4 334 10.3
2010-10-27 06:47:08 51°17.182 2°52.406 334.1 13.4 336 10.2
2010-10-27 06:47:13 51°17.199 2°52.393 334.7 13.4 333 9.9
2010-10-27 06:47:19 51°17.219 2°52.378 334.6 13.6 335 10.5
2010-10-27 06:47:23 51°17.232 2°52.368 334.3 13.4 334 10.1
2010-10-27 06:47:28 51°17.249 2°52.354 333.9 13.4 333 10.1
2010-10-27 06:47:33 51°17.265 2°52.341 333.3 13.4 335 10.2
2010-10-27 06:47:39 51°17.286 2°52.326 334.3 13.6 334 10.5
2010-10-27 06:47:43 51°17.299 2°52.315 334 13.5 334 10.3
2010-10-27 06:47:48 51°17.316 2°52.302 334.1 13.6 334 10.5
2010-10-27 06:47:53 51°17.333 2°52.29 334.2 13.4 335 10.3
2010-10-27 06:47:58 51°17.35 2°52.277 334.1 13.3 334 10.1
2010-10-27 06:48:03 51°17.366 2°52.264 334.7 13.3 334 11
2010-10-27 06:48:08 51°17.383 2°52.252 334.2 13.4 336 11.1
2010-10-27 06:48:13 51°17.4 2°52.238 334.5 13.4 332 11.3
2010-10-27 06:48:18 51°17.416 2°52.225 333.6 13.4 336 11.5
2010-10-27 06:48:23 51°17.433 2°52.211 333.9 13.4 332 11.2
2010-10-27 06:48:28 51°17.449 2°52.199 333.2 13.4 335 11.2
2010-10-27 06:48:33 51°17.466 2°52.185 334 13.5 333 11.3
2010-10-27 06:48:38 51°17.483 2°52.172 334.1 13.5 335 10.8
2010-10-27 06:48:43 51°17.499 2°52.159 334.7 13.4 334 11.5
2010-10-27 06:48:48 51°17.515 2°52.145 333.3 13.3 333 11.2
2010-10-27 06:48:53 51°17.532 2°52.133 334.4 13.3 335 11.2
2010-10-27 06:48:58 51°17.549 2°52.118 333.7 13.4 332 11.5
2010-10-27 06:49:03 51°17.566 2°52.107 334 13.4 334 11.3
2010-10-27 06:49:08 51°17.583 2°52.093 334.1 13.5 332 11.3
2010-10-27 06:49:14 51°17.602 2°52.076 332.7 13.3 333 11.2
2010-10-27 06:49:19 51°17.619 2°52.064 333.9 13.3 335 10.9
2010-10-27 06:49:23 51°17.632 2°52.053 333.3 13.4 331 11.1
2010-10-27 06:49:28 51°17.649 2°52.04 332.7 13.2 335 10.8
2010-10-27 06:49:34 51°17.668 2°52.023 334 13.2 332 10.6
2010-10-27 06:49:39 51°17.685 2°52.011 334 13.2 334 10.5
2010-10-27 06:49:43 51°17.699 2°52.001 334.4 13.4 334 10.2
2010-10-27 06:49:48 51°17.715 2°51.988 334.6 13.3 334 10.2
2010-10-27 06:49:53 51°17.732 2°51.975 334 13.3 334 10.5
2010-10-27 06:49:59 51°17.752 2°51.961 334.5 13.2 335 10.2
2010-10-27 06:50:03 51°17.765 2°51.95 335.1 13.4 334 10.3
2010-10-27 06:50:08 51°17.781 2°51.937 334 13.2 336 10
2010-10-27 06:50:13 51°17.798 2°51.924 334.9 13.4 333 10.1
2010-10-27 06:50:18 51°17.815 2°51.912 334.7 13.3 335 10.2
2010-10-27 06:50:23 51°17.832 2°51.899 335.3 13.3 335 10.1
2010-10-27 06:50:28 51°17.848 2°51.886 334.7 13.3 335 10.2
2010-10-27 06:50:33 51°17.865 2°51.873 334.7 13.4 334 10.1
2010-10-27 06:50:38 51°17.882 2°51.861 335.1 13.1 336 10.1
2010-10-27 06:50:43 51°17.898 2°51.848 335.4 13.2 334 10.6
2010-10-27 06:50:48 51°17.915 2°51.835 334.7 13.3 334 10.3
2010-10-27 06:50:53 51°17.932 2°51.823 334.8 13.4 335 10.1
2010-10-27 06:50:58 51°17.949 2°51.809 334.7 13.4 333 10.3
2010-10-27 06:51:03 51°17.966 2°51.797 334.6 13.4 336 10.5
2010-10-27 06:51:08 51°17.982 2°51.784 334.9 13.5 335 10.6
2010-10-27 06:51:14 51°18.003 2°51.77 335.1 13.3 335 10.7
2010-10-27 06:51:19 51°18.02 2°51.756 335.6 13.5 334 10.7
2010-10-27 06:51:23 51°18.033 2°51.746 334.9 13.4 334 10.7
2010-10-27 06:51:28 51°18.05 2°51.733 334.7 13.4 334 10.4
2010-10-27 06:51:33 51°18.067 2°51.72 334.7 13.5 334 10.7
2010-10-27 06:51:39 51°18.087 2°51.705 334.7 13.4 334 10.7
2010-10-27 06:51:43 51°18.1 2°51.694 334.4 13.4 334 10.3
2010-10-27 06:51:48 51°18.117 2°51.682 334 13.4 335 11.1
2010-10-27 06:51:54 51°18.137 2°51.666 334.7 13.4 334 10.7
2010-10-27 06:51:59 51°18.153 2°51.653 333.8 13.3 335 10.8
2010-10-27 06:52:03 51°18.167 2°51.643 334.3 13.4 334 11
2010-10-27 06:52:08 51°18.183 2°51.629 333.8 13.3 333 11.3
2010-10-27 06:52:13 51°18.2 2°51.617 334.2 13.3 335 11.4
2010-10-27 06:52:19 51°18.22 2°51.601 334.7 13.4 334 11.5
2010-10-27 06:52:23 51°18.233 2°51.59 334.4 13.4 333 11.5
2010-10-27 06:52:28 51°18.25 2°51.577 333.9 13.4 333 12
2010-10-27 06:52:33 51°18.267 2°51.564 333.9 13.4 334 12.1
2010-10-27 06:52:38 51°18.283 2°51.551 334.7 13.4 334 11.8
2010-10-27 06:52:43 51°18.3 2°51.538 334.3 13.6 334 12.1
2010-10-27 06:52:48 51°18.317 2°51.525 334.3 13.4 335 11.7
2010-10-27 06:52:53 51°18.333 2°51.512 334.2 13.4 333 12.4
2010-10-27 06:52:58 51°18.35 2°51.499 334.7 13.1 334 12
2010-10-27 06:53:03 51°18.366 2°51.486 334.7 13.3 333 12.5
2010-10-27 06:53:08 51°18.383 2°51.473 334.7 13.4 335 12.9
2010-10-27 06:53:13 51°18.4 2°51.46 334.7 13.3 333 12.6
2010-10-27 06:53:18 51°18.417 2°51.447 334.2 13.5 334 12.5
2010-10-27 06:53:23 51°18.434 2°51.434 334.3 13.5 334 12.9
2010-10-27 06:53:28 51°18.451 2°51.421 334.2 13.5 334 13
2010-10-27 06:53:34 51°18.471 2°51.405 334.2 13.4 335 12.8
2010-10-27 06:53:39 51°18.487 2°51.392 334.7 13.4 334 13.3
2010-10-27 06:53:43 51°18.501 2°51.382 335.4 13.4 335 13.2
2010-10-27 06:53:48 51°18.517 2°51.368 333.5 13.5 330 13.6
2010-10-27 06:53:53 51°18.534 2°51.355 333.3 13.4 335 13.7
2010-10-27 06:53:59 51°18.554 2°51.338 333.9 13.4 332 13.7
2010-10-27 06:54:03 51°18.567 2°51.328 333.4 13.4 334 13.7
2010-10-27 06:54:08 51°18.584 2°51.315 333.7 13.5 333 13.5
2010-10-27 06:54:14 51°18.605 2°51.299 333.6 13.5 335 13.9
2010-10-27 06:54:19 51°18.621 2°51.285 334 13.6 333 14.1
2010-10-27 06:54:23 51°18.635 2°51.275 333.8 13.4 333 14
2010-10-27 06:54:28 51°18.651 2°51.261 334.4 13.5 332 14.1
2010-10-27 06:54:33 51°18.668 2°51.248 334 13.7 335 14.2
2010-10-27 06:54:39 51°18.689 2°51.232 334.4 13.6 334 14
2010-10-27 06:54:43 51°18.702 2°51.222 334.7 13.4 335 14.2
2010-10-27 06:54:48 51°18.719 2°51.209 335.1 13.6 333 14.3
2010-10-27 06:54:53 51°18.736 2°51.196 334.6 13.5 334 14.1
2010-10-27 06:54:58 51°18.752 2°51.183 334 13.2 333 14
2010-10-27 06:55:03 51°18.768 2°51.169 334.3 13.2 333 14.2
2010-10-27 06:55:08 51°18.786 2°51.156 334 13.4 334 14.4
2010-10-27 06:55:13 51°18.802 2°51.144 335.4 13.4 335 14.8
2010-10-27 06:55:18 51°18.819 2°51.129 334 13.5 330 14.6
2010-10-27 06:55:23 51°18.835 2°51.116 332.6 13.3 334 14.2
2010-10-27 06:55:28 51°18.852 2°51.104 333.5 13.6 334 15.2
2010-10-27 06:55:33 51°18.869 2°51.09 334.2 13.3 335 14.6
2010-10-27 06:55:38 51°18.885 2°51.078 334.8 13.3 333 14.4
2010-10-27 06:55:43 51°18.901 2°51.064 334.2 13.3 333 15.1
2010-10-27 06:55:48 51°18.917 2°51.051 333.8 13.4 334 14.5
2010-10-27 06:55:54 51°18.937 2°51.035 334 13.3 334 14.5
2010-10-27 06:55:59 51°18.953 2°51.021 334.4 13.2 332 14.7
2010-10-27 06:56:03 51°18.967 2°51.011 334 13.2 334 14.6
2010-10-27 06:56:08 51°18.983 2°50.996 334 13.3 332 14.4
2010-10-27 06:56:13 51°19.001 2°50.985 334.7 13.5 335 14.7
2010-10-27 06:56:19 51°19.02 2°50.967 333.5 13.4 332 14.9
2010-10-27 06:56:23 51°19.034 2°50.958 334 13.4 334 14.8
2010-10-27 06:56:28 51°19.05 2°50.943 334.5 13.5 332 14.9
2010-10-27 06:56:34 51°19.07 2°50.927 333.6 13.6 332 14.9
2010-10-27 06:56:39 51°19.087 2°50.914 333.6 13.5 334 14.6
2010-10-27 06:56:43 51°19.1 2°50.903 333.8 13.5 332 14.6
2010-10-27 06:56:48 51°19.116 2°50.89 334.2 13.5 334 14.6
2010-10-27 06:56:53 51°19.133 2°50.876 334.2 13.6 333 14.4
2010-10-27 06:56:59 51°19.154 2°50.86 334.3 13.5 334 14.2
2010-10-27 06:57:03 51°19.167 2°50.85 335 13.7 336 14.9
2010-10-27 06:57:08 51°19.184 2°50.836 334.3 13.5 333 14
2010-10-27 06:57:13 51°19.201 2°50.824 334.1 13.3 336 14
2010-10-27 06:57:18 51°19.217 2°50.811 335.1 13.4 333 14.7
2010-10-27 06:57:23 51°19.234 2°50.798 334.6 13.4 335 14.1
2010-10-27 06:57:28 51°19.251 2°50.784 334.7 13.4 332 14.4
2010-10-27 06:57:33 51°19.267 2°50.772 334.7 13.2 334 14
2010-10-27 06:57:38 51°19.284 2°50.758 334.2 13.3 332 14.2
2010-10-27 06:57:43 51°19.3 2°50.745 334.3 13.4 333 13.9
2010-10-27 06:57:48 51°19.317 2°50.732 334.3 13.1 334 13.6
2010-10-27 06:57:53 51°19.334 2°50.719 334.4 13.5 332 13.6
2010-10-27 06:57:58 51°19.351 2°50.706 334.3 13.4 335 13
2010-10-27 06:58:03 51°19.367 2°50.692 334.3 13.3 332 13.3
2010-10-27 06:58:08 51°19.383 2°50.679 334.6 13.3 334 12.9
2010-10-27 06:58:14 51°19.404 2°50.663 334.9 13.5 332 12.8
2010-10-27 06:58:19 51°19.42 2°50.651 334.2 13.3 336 12.6
2010-10-27 06:58:23 51°19.434 2°50.64 335.1 13.4 334 12.3
2010-10-27 06:58:28 51°19.45 2°50.626 334.1 13.3 333 12.7
2010-10-27 06:58:33 51°19.467 2°50.613 334.3 13.4 333 12.4
2010-10-27 06:58:39 51°19.487 2°50.597 334 13.3 334 12.2
2010-10-27 06:58:43 51°19.5 2°50.586 334.3 13.4 333 12.4
2010-10-27 06:58:48 51°19.517 2°50.573 334.5 13.6 336 11.8
2010-10-27 06:58:53 51°19.534 2°50.56 334.6 13.5 332 11.8
2010-10-27 06:58:59 51°19.555 2°50.545 334.2 13.3 335 12.1
2010-10-27 06:59:03 51°19.568 2°50.534 334.5 13.2 333 11.4
2010-10-27 06:59:08 51°19.584 2°50.522 335 13.4 335 11.7
2010-10-27 06:59:13 51°19.6 2°50.507 334 13.4 331 11.5
2010-10-27 06:59:18 51°19.617 2°50.494 333.7 13.3 334 11.3
2010-10-27 06:59:23 51°19.634 2°50.481 334 13.5 333 11.4
2010-10-27 06:59:28 51°19.651 2°50.467 333.8 13.4 333 11.8
2010-10-27 06:59:33 51°19.668 2°50.454 334.1 13.5 333 11.8
2010-10-27 06:59:38 51°19.684 2°50.44 334 13.4 334 11.9
2010-10-27 06:59:43 51°19.701 2°50.427 334.8 13.6 333 12.6
2010-10-27 06:59:48 51°19.718 2°50.413 334.2 13.5 332 12.9
2010-10-27 06:59:53 51°19.734 2°50.4 334.4 13.5 333 12.9
2010-10-27 06:59:58 51°19.752 2°50.385 333.5 13.8 330 13.2
2010-10-27 07:00:03 51°19.769 2°50.372 333.3 13.6 334 13.1
2010-10-27 07:00:08 51°19.786 2°50.357 334.2 13.7 329 13.5
2010-10-27 07:00:13 51°19.801 2°50.344 334 13.6 335 13.7
2010-10-27 07:00:18 51°19.819 2°50.33 334.6 13.7 332 14
2010-10-27 07:00:23 51°19.835 2°50.316 334.3 13.4 334 13.4
2010-10-27 07:00:28 51°19.852 2°50.302 334.7 13.7 332 13.5
2010-10-27 07:00:34 51°19.873 2°50.287 335.2 13.7 335 13.8
2010-10-27 07:00:39 51°19.889 2°50.273 334.5 13.5 333 13.7
2010-10-27 07:00:43 51°19.903 2°50.264 334.3 13.5 335 13.1
2010-10-27 07:00:48 51°19.92 2°50.25 335 13.6 331 13.4
2010-10-27 07:00:53 51°19.936 2°50.236 333.4 13.4 334 14.2
2010-10-27 07:00:59 51°19.956 2°50.22 334.7 13.6 332 13.8
2010-10-27 07:01:03 51°19.97 2°50.209 334 13.5 334 14.2
2010-10-27 07:01:08 51°19.987 2°50.196 334.8 13.5 333 14.5
2010-10-27 07:01:13 51°20.004 2°50.182 335 13.6 334 14.6
2010-10-27 07:01:19 51°20.024 2°50.166 334.2 13.6 333 14.9
2010-10-27 07:01:23 51°20.037 2°50.156 335.4 13.6 336 15
2010-10-27 07:01:28 51°20.054 2°50.142 334.7 13.7 331 15.8
2010-10-27 07:01:33 51°20.07 2°50.129 333.9 13.5 335 15.7
2010-10-27 07:01:38 51°20.087 2°50.114 333.9 13.5 332 15.6
2010-10-27 07:01:43 51°20.104 2°50.102 334.7 13.3 334 16
2010-10-27 07:01:48 51°20.12 2°50.087 334 13.5 332 16.3
2010-10-27 07:01:53 51°20.137 2°50.074 334.1 13.7 333 16.8
2010-10-27 07:01:58 51°20.154 2°50.06 333.5 13.7 333 17.4
2010-10-27 07:02:03 51°20.171 2°50.047 333.5 13.7 333 17
2010-10-27 07:02:08 51°20.187 2°50.033 333.5 13.5 333 17.7
2010-10-27 07:02:13 51°20.204 2°50.021 333.7 13.5 335 17.5
2010-10-27 07:02:18 51°20.221 2°50.007 334.4 13.4 333 17.7
2010-10-27 07:02:23 51°20.237 2°49.994 334.2 13.3 334 18.4
2010-10-27 07:02:28 51°20.254 2°49.98 334.4 13.5 334 18.5
2010-10-27 07:02:33 51°20.271 2°49.967 334.8 13.5 334 18.5
2010-10-27 07:02:38 51°20.287 2°49.953 334.3 13.5 333 18.9
2010-10-27 07:02:43 51°20.304 2°49.94 334.7 13.6 334 19
2010-10-27 07:02:48 51°20.321 2°49.927 334.5 13.5 334 19.5
2010-10-27 07:02:54 51°20.341 2°49.91 334.4 13.5 333 19.5
2010-10-27 07:02:59 51°20.358 2°49.897 335 13.5 334 20.1
2010-10-27 07:03:03 51°20.371 2°49.885 334.6 13.5 332 20.4
2010-10-27 07:03:08 51°20.388 2°49.872 334.2 13.6 335 20.8
2010-10-27 07:03:13 51°20.405 2°49.858 334.7 13.6 333 20.4
2010-10-27 07:03:19 51°20.425 2°49.842 334.9 13.7 332 20.6
2010-10-27 07:03:23 51°20.439 2°49.831 334.1 13.6 334 21
2010-10-27 07:03:28 51°20.455 2°49.817 334.3 13.7 332 21.5
2010-10-27 07:03:33 51°20.472 2°49.804 333.5 13.6 336 21.4
2010-10-27 07:03:38 51°20.49 2°49.792 334.9 13.7 333 21.3
2010-10-27 07:03:43 51°20.506 2°49.779 334.3 13.6 335 22.2
2010-10-27 07:03:48 51°20.523 2°49.765 334.7 13.7 333 21.7
2010-10-27 07:03:53 51°20.54 2°49.751 334.7 13.5 335 21.7
2010-10-27 07:03:58 51°20.556 2°49.738 334.1 13.4 329 22.7
2010-10-27 07:04:03 51°20.57 2°49.72 328.3 13.2 323 22.6
2010-10-27 07:04:08 51°20.584 2°49.701 321.5 12.8 315 22.6
2010-10-27 07:04:13 51°20.595 2°49.679 313.9 12.8 309 23.1
2010-10-27 07:04:18 51°20.606 2°49.657 306.3 12.6 303 22.9
2010-10-27 07:04:23 51°20.614 2°49.632 300.3 12.7 299 23
2010-10-27 07:04:28 51°20.623 2°49.607 298 12.9 299 22.7
2010-10-27 07:04:33 51°20.631 2°49.581 295.9 13 295 22.5
2010-10-27 07:04:38 51°20.638 2°49.554 293.7 13.1 295 22.6
2010-10-27 07:04:43 51°20.646 2°49.528 292.9 13.2 295 22.7
2010-10-27 07:04:48 51°20.652 2°49.501 291.3 13.2 291 22.7
2010-10-27 07:04:53 51°20.659 2°49.473 290.7 13.4 293 22.3
2010-10-27 07:04:58 51°20.666 2°49.446 289.7 13.4 290 22.5
2010-10-27 07:05:03 51°20.673 2°49.419 289.1 13.4 292 22.8
2010-10-27 07:05:08 51°20.679 2°49.391 288.7 13.4 290 22.7
2010-10-27 07:05:14 51°20.687 2°49.357 288.4 13.4 291 22.8
2010-10-27 07:05:19 51°20.694 2°49.329 288.6 13.5 290 22.8
2010-10-27 07:05:23 51°20.699 2°49.307 288.5 13.5 291 22.9
2010-10-27 07:05:28 51°20.706 2°49.279 287.9 13.5 291 22.7
2010-10-27 07:05:33 51°20.712 2°49.251 288.1 13.5 289 22.6
2010-10-27 07:05:39 51°20.72 2°49.218 287.7 13.3 290 22.3
2010-10-27 07:05:43 51°20.724 2°49.196 287.7 13.3 290 22.8
2010-10-27 07:05:48 51°20.731 2°49.167 288.3 13.5 290 22.8
2010-10-27 07:05:53 51°20.737 2°49.139 288.1 13.4 290 22.4
2010-10-27 07:05:59 51°20.745 2°49.106 288.2 13.4 291 22.4
2010-10-27 07:06:03 51°20.751 2°49.084 288.7 13.5 291 22.5
2010-10-27 07:06:08 51°20.757 2°49.056 288.5 13.5 290 22.5
2010-10-27 07:06:13 51°20.764 2°49.028 288.8 13.6 291 22.3
2010-10-27 07:06:18 51°20.771 2°49 288.8 13.5 291 21.4
2010-10-27 07:06:23 51°20.777 2°48.971 288.2 13.5 289 21.8
2010-10-27 07:06:28 51°20.784 2°48.943 288.2 13.5 290 22
2010-10-27 07:06:33 51°20.79 2°48.915 288.2 13.6 291 22.1
2010-10-27 07:06:38 51°20.797 2°48.887 288.5 13.5 292 21.7
2010-10-27 07:06:43 51°20.804 2°48.859 289 13.6 290 22.1
2010-10-27 07:06:48 51°20.81 2°48.832 288.1 13.3 291 21.3
2010-10-27 07:06:54 51°20.819 2°48.799 287.7 13.4 293 22
2010-10-27 07:06:58 51°20.825 2°48.777 291.1 13.4 294 21.6
2010-10-27 07:07:03 51°20.833 2°48.751 293 13.4 297 21.9
2010-10-27 07:07:08 51°20.842 2°48.724 294.2 13.5 299 21.5
2010-10-27 07:07:13 51°20.852 2°48.699 298.1 13.5 304 21.3
2010-10-27 07:07:18 51°20.862 2°48.675 300.1 13.4 303 21.3
2010-10-27 07:07:23 51°20.873 2°48.651 302 13.4 306 20.8
2010-10-27 07:07:28 51°20.884 2°48.626 304.3 13.4 307 20.6
2010-10-27 07:07:33 51°20.895 2°48.603 304.7 13.5 307 20.8
2010-10-27 07:07:39 51°20.91 2°48.576 307.4 13.3 312 20.4
2010-10-27 07:07:43 51°20.919 2°48.557 309 13.5 309 20.5
2010-10-27 07:07:48 51°20.932 2°48.536 309.8 13.4 312 20.6
2010-10-27 07:07:53 51°20.944 2°48.514 311.8 13.5 314 20.2
2010-10-27 07:07:59 51°20.96 2°48.488 313 13.5 314 20.1
2010-10-27 07:08:03 51°20.971 2°48.471 314 13.6 317 20.7
2010-10-27 07:08:08 51°20.985 2°48.45 315.3 13.5 315 19.9
2010-10-27 07:08:13 51°20.998 2°48.43 315.3 13.3 319 19.7
2010-10-27 07:08:18 51°21.012 2°48.409 316.6 13.6 313 20
2010-10-27 07:08:23 51°21.025 2°48.389 314.9 13.3 316 19.5
2010-10-27 07:08:28 51°21.039 2°48.369 316.1 13.3 315 20.3
2010-10-27 07:08:33 51°21.052 2°48.347 316.2 13.4 317 19.8
2010-10-27 07:08:38 51°21.066 2°48.326 315.9 13.6 316 20.2
2010-10-27 07:08:43 51°21.079 2°48.306 316.5 13.5 316 20.1
2010-10-27 07:08:48 51°21.093 2°48.285 316.4 13.5 316 19.7
2010-10-27 07:08:53 51°21.107 2°48.264 316.4 13.5 317 19.6
2010-10-27 07:08:58 51°21.12 2°48.243 316.7 13.5 316 18.9
2010-10-27 07:09:03 51°21.134 2°48.223 316.7 13.4 316 19.3
2010-10-27 07:09:08 51°21.148 2°48.203 317.7 13.5 317 20.1
2010-10-27 07:09:14 51°21.164 2°48.178 316.7 13.5 316 19.5
2010-10-27 07:09:18 51°21.175 2°48.162 316.1 13.5 318 20.9
2010-10-27 07:09:23 51°21.189 2°48.141 316.3 13.5 314 21.1
2010-10-27 07:09:28 51°21.203 2°48.121 316.5 13.5 318 20.7
2010-10-27 07:09:33 51°21.215 2°48.099 316.2 13.4 314 20.7
2010-10-27 07:09:38 51°21.229 2°48.079 316.3 13.5 318 21.1
2010-10-27 07:09:43 51°21.242 2°48.058 316.5 13.4 316 22
2010-10-27 07:09:48 51°21.256 2°48.036 315.6 13.5 314 22.1
2010-10-27 07:09:54 51°21.272 2°48.011 315.3 13.6 316 21.8
2010-10-27 07:09:59 51°21.285 2°47.99 315.7 13.6 315 21.2
2010-10-27 07:10:03 51°21.296 2°47.974 316.2 13.6 317 20.6
2010-10-27 07:10:08 51°21.31 2°47.952 316.5 13.6 314 20.5
2010-10-27 07:10:13 51°21.323 2°47.932 315.6 13.6 317 21
2010-10-27 07:10:19 51°21.34 2°47.906 316 13.7 315 21.5
2010-10-27 07:10:23 51°21.351 2°47.89 315.7 13.5 316 21.4
2010-10-27 07:10:28 51°21.365 2°47.868 316.1 13.7 315 21.8
2010-10-27 07:10:33 51°21.378 2°47.848 315.3 13.5 317 22
2010-10-27 07:10:38 51°21.392 2°47.826 315.9 13.7 314 22.4
2010-10-27 07:10:43 51°21.405 2°47.805 315.1 13.5 315 22.2
2010-10-27 07:10:48 51°21.418 2°47.783 314.8 13.6 313 22.3
2010-10-27 07:10:53 51°21.431 2°47.762 314.7 13.4 314 21.9
2010-10-27 07:10:58 51°21.443 2°47.74 314.4 13.5 314 22.6
2010-10-27 07:11:03 51°21.456 2°47.719 315 13.6 315 22.1
2010-10-27 07:11:08 51°21.469 2°47.698 314.5 13.4 314 23.3
2010-10-27 07:11:13 51°21.482 2°47.677 315.3 13.4 316 23
2010-10-27 07:11:18 51°21.494 2°47.655 314.8 13.4 314 23.5
2010-10-27 07:11:23 51°21.508 2°47.635 315.5 13.6 315 23.6
2010-10-27 07:11:28 51°21.52 2°47.613 314.7 13.5 314 23.5
2010-10-27 07:11:34 51°21.536 2°47.587 315 13.5 312 23.2
2010-10-27 07:11:38 51°21.547 2°47.571 314.7 13.3 314 23.2
2010-10-27 07:11:43 51°21.56 2°47.549 314.3 13.4 313 23
2010-10-27 07:11:48 51°21.573 2°47.527 315 13.4 314 21.7
2010-10-27 07:11:54 51°21.588 2°47.501 315 13.5 313 21.8
2010-10-27 07:11:59 51°21.6 2°47.479 313.8 13.4 312 23.1
2010-10-27 07:12:03 51°21.61 2°47.46 312.9 13.5 311 23
2010-10-27 07:12:08 51°21.622 2°47.438 311.5 13.4 312 23.3
2010-10-27 07:12:13 51°21.635 2°47.416 311.6 13.4 310 23.7
2010-10-27 07:12:19 51°21.649 2°47.389 311.4 13.4 310 23.7
2010-10-27 07:12:23 51°21.658 2°47.371 310.9 13.4 311 23.9
2010-10-27 07:12:28 51°21.67 2°47.348 310.7 13.6 311 23.8
2010-10-27 07:12:33 51°21.683 2°47.325 310.5 13.5 309 24.2
2010-10-27 07:12:39 51°21.697 2°47.298 310.4 13.5 311 24.5
2010-10-27 07:12:43 51°21.707 2°47.279 311 13.6 310 24.4
2010-10-27 07:12:48 51°21.719 2°47.257 311 13.5 312 24.3
2010-10-27 07:12:53 51°21.731 2°47.234 311.7 13.5 310 23.7
2010-10-27 07:12:58 51°21.743 2°47.211 310.2 13.5 311 24.2
2010-10-27 07:13:03 51°21.755 2°47.188 310.3 13.4 310 24.1
2010-10-27 07:13:08 51°21.767 2°47.165 310.6 13.6 310 23.7
2010-10-27 07:13:13 51°21.779 2°47.142 310.2 13.4 309 23.3
2010-10-27 07:13:18 51°21.791 2°47.12 310.4 13.5 311 23.8
2010-10-27 07:13:23 51°21.803 2°47.096 309.6 13.6 309 23.9
2010-10-27 07:13:28 51°21.815 2°47.074 310.5 13.5 312 24.1
2010-10-27 07:13:33 51°21.826 2°47.05 309.3 13.5 306 24
2010-10-27 07:13:38 51°21.839 2°47.028 308.7 13.6 311 24.1
2010-10-27 07:13:43 51°21.85 2°47.003 307.9 13.6 306 23.9
2010-10-27 07:13:48 51°21.862 2°46.98 308.2 13.5 310 24.2
2010-10-27 07:13:54 51°21.876 2°46.951 309 13.6 308 24.3
2010-10-27 07:13:59 51°21.888 2°46.929 309.3 13.5 310 23.6
2010-10-27 07:14:03 51°21.897 2°46.91 309.8 13.5 309 23.7
2010-10-27 07:14:08 51°21.909 2°46.888 310 13.4 311 23.9
2010-10-27 07:14:14 51°21.924 2°46.86 310.7 13.5 310 24.3
2010-10-27 07:14:19 51°21.936 2°46.837 311.1 13.5 311 23.9
2010-10-27 07:14:23 51°21.945 2°46.818 310.2 13.4 308 23.2
2010-10-27 07:14:28 51°21.957 2°46.796 309.5 13.4 311 22.8
2010-10-27 07:14:33 51°21.969 2°46.773 310.7 13.4 310 22.5
2010-10-27 07:14:39 51°21.983 2°46.746 310.6 13.4 310 22.6
2010-10-27 07:14:43 51°21.993 2°46.728 311.2 13.4 312 23.1
2010-10-27 07:14:48 51°22.005 2°46.706 310.9 13.5 312 22.5
2010-10-27 07:14:53 51°22.018 2°46.684 312.2 13.4 312 22.2
2010-10-27 07:14:59 51°22.032 2°46.656 311.2 13.5 309 22.1
2010-10-27 07:15:03 51°22.042 2°46.638 310.5 13.5 312 22
2010-10-27 07:15:08 51°22.055 2°46.616 310.7 13.7 311 22.2
2010-10-27 07:15:13 51°22.067 2°46.592 310 13.3 310 21.1
2010-10-27 07:15:18 51°22.079 2°46.57 310.8 13.4 311 20.6
2010-10-27 07:15:23 51°22.091 2°46.548 310.8 13.5 310 21.2
2010-10-27 07:15:28 51°22.103 2°46.525 310.5 13.6 309 20.7
2010-10-27 07:15:33 51°22.114 2°46.501 310.1 13.5 310 20.5
2010-10-27 07:15:38 51°22.126 2°46.478 310.5 13.6 307 20.1
2010-10-27 07:15:43 51°22.138 2°46.454 308.5 13.5 308 20.6
2010-10-27 07:15:48 51°22.15 2°46.432 310.2 13.6 311 20.4
2010-10-27 07:15:53 51°22.162 2°46.408 309.5 13.6 309 19.7
2010-10-27 07:15:58 51°22.174 2°46.386 309.1 13.6 312 20
2010-10-27 07:16:03 51°22.186 2°46.362 309.8 13.7 308 20
2010-10-27 07:16:08 51°22.198 2°46.339 309.6 13.6 310 19.6
2010-10-27 07:16:14 51°22.213 2°46.311 309.6 13.7 311 19.9
2010-10-27 07:16:19 51°22.225 2°46.288 310 13.6 310 19.8
2010-10-27 07:16:23 51°22.235 2°46.27 311.1 13.7 311 20.4
2010-10-27 07:16:28 51°22.247 2°46.246 309.4 13.5 310 19.4
2010-10-27 07:16:34 51°22.261 2°46.219 310.7 13.4 310 19.6
2010-10-27 07:16:39 51°22.274 2°46.198 311 13.4 313 19.6
2010-10-27 07:16:43 51°22.283 2°46.179 310.7 13.4 309 20
2010-10-27 07:16:48 51°22.295 2°46.156 309.3 13.5 309 20.3
2010-10-27 07:16:53 51°22.307 2°46.133 309.4 13.5 310 20.4
2010-10-27 07:16:59 51°22.321 2°46.105 309.3 13.5 310 20.4
2010-10-27 07:17:03 51°22.331 2°46.088 309.9 13.5 311 20.5
2010-10-27 07:17:08 51°22.343 2°46.063 309.3 13.6 307 19.9
2010-10-27 07:17:13 51°22.355 2°46.041 308.9 13.5 314 19.7
2010-10-27 07:17:18 51°22.367 2°46.018 310.3 13.6 309 20
2010-10-27 07:17:23 51°22.38 2°45.996 311.6 13.3 312 19.7
2010-10-27 07:17:28 51°22.393 2°45.975 313 13.5 313 19.2
2010-10-27 07:17:33 51°22.406 2°45.953 313.6 13.4 316 19.1
2010-10-27 07:17:38 51°22.42 2°45.933 315.5 13.5 316 18.4
2010-10-27 07:17:43 51°22.433 2°45.913 316.6 13.6 317 19.1
2010-10-27 07:17:48 51°22.448 2°45.893 317.8 13.6 319 20.4
2010-10-27 07:17:53 51°22.461 2°45.872 318.2 13.6 316 21
2010-10-27 07:17:58 51°22.475 2°45.852 317.1 13.5 319 21
2010-10-27 07:18:03 51°22.49 2°45.834 319.5 13.4 321 21.5
2010-10-27 07:18:08 51°22.503 2°45.813 319 13.4 316 22.6
2010-10-27 07:18:13 51°22.517 2°45.793 317.5 13.4 318 22.5
2010-10-27 07:18:18 51°22.532 2°45.774 318.7 13.5 321 23
2010-10-27 07:18:23 51°22.545 2°45.753 318.4 13.6 316 23
2010-10-27 07:18:28 51°22.559 2°45.735 318.2 13.4 322 23.1
2010-10-27 07:18:34 51°22.576 2°45.712 320.8 13.4 318 24
2010-10-27 07:18:39 51°22.591 2°45.695 321.6 13.4 324 24.1
2010-10-27 07:18:43 51°22.603 2°45.679 322 13.6 321 24.4
2010-10-27 07:18:48 51°22.617 2°45.661 322.3 13.5 322 23.8
2010-10-27 07:18:53 51°22.632 2°45.642 321.8 13.4 324 23.5
2010-10-27 07:18:59 51°22.65 2°45.621 323.9 13.6 324 23
2010-10-27 07:19:03 51°22.662 2°45.607 324.8 13.4 325 23.1
2010-10-27 07:19:08 51°22.678 2°45.591 325.6 13.4 327 22.5
2010-10-27 07:19:13 51°22.694 2°45.574 326 13.5 324 21.2
2010-10-27 07:19:19 51°22.712 2°45.554 326.1 13.5 326 20.4
2010-10-27 07:19:23 51°22.724 2°45.54 326.9 13.4 325 21.1
2010-10-27 07:19:28 51°22.739 2°45.523 326 13.3 324 22.4
2010-10-27 07:19:33 51°22.754 2°45.506 326.7 13.4 325 22.6
2010-10-27 07:19:38 51°22.77 2°45.489 326.7 13.4 326 21.9
2010-10-27 07:19:43 51°22.786 2°45.474 327.9 13.5 327 23.1
2010-10-27 07:19:48 51°22.801 2°45.457 327.9 13.5 327 23.9
2010-10-27 07:19:53 51°22.816 2°45.44 327.7 13.6 326 24.8
2010-10-27 07:19:58 51°22.832 2°45.423 326.9 13.6 325 25.6
2010-10-27 07:20:03 51°22.847 2°45.406 327 13.6 326 25.5
2010-10-27 07:20:08 51°22.863 2°45.388 326.7 13.7 324 25.2
2010-10-27 07:20:13 51°22.879 2°45.372 328.1 13.7 327 24.9
2010-10-27 07:20:18 51°22.894 2°45.355 327.3 13.6 324 24.8
2010-10-27 07:20:23 51°22.91 2°45.339 327.5 13.5 328 24.9
2010-10-27 07:20:28 51°22.925 2°45.322 327.9 13.4 324 26
2010-10-27 07:20:34 51°22.944 2°45.305 329.1 13.3 331 26.1
2010-10-27 07:20:39 51°22.96 2°45.288 328.2 13.4 325 26.3
2010-10-27 07:20:43 51°22.973 2°45.276 328.9 13.3 329 26.3
2010-10-27 07:20:48 51°22.988 2°45.259 328.8 13.4 327 25.6
2010-10-27 07:20:53 51°23.004 2°45.243 329.3 13.4 327 24.3
2010-10-27 07:20:59 51°23.023 2°45.224 328.9 13.6 328 25.7
2010-10-27 07:21:03 51°23.035 2°45.21 327.4 13.5 325 26.3
2010-10-27 07:21:08 51°23.051 2°45.194 327.4 13.5 327 25.5
2010-10-27 07:21:13 51°23.066 2°45.177 327.3 13.3 324 24.8
2010-10-27 07:21:19 51°23.085 2°45.16 328.9 13.3 330 24.9
2010-10-27 07:21:23 51°23.097 2°45.146 328.6 13.5 326 25.3
2010-10-27 07:21:28 51°23.113 2°45.129 328.9 13.4 326 25.3
2010-10-27 07:21:33 51°23.128 2°45.112 327 13.3 324 24.7
2010-10-27 07:21:39 51°23.146 2°45.093 327.9 13.3 327 25.8
2010-10-27 07:21:43 51°23.159 2°45.079 327.3 13.4 326 26.1
2010-10-27 07:21:48 51°23.175 2°45.063 327.7 13.5 326 26.6
2010-10-27 07:21:53 51°23.19 2°45.046 327.6 13.5 326 26.4
2010-10-27 07:21:58 51°23.204 2°45.028 326.7 13.4 324 26.3
2010-10-27 07:22:03 51°23.22 2°45.013 327.7 13.4 329 27.1
2010-10-27 07:22:08 51°23.235 2°44.994 327.8 13.5 322 26.3
2010-10-27 07:22:13 51°23.25 2°44.977 324 13.4 324 26.4
2010-10-27 07:22:18 51°23.266 2°44.96 325.6 13.4 326 26.3
2010-10-27 07:22:23 51°23.28 2°44.942 325.3 13.5 323 25.3
2010-10-27 07:22:28 51°23.296 2°44.924 324.8 13.5 323 25.6
2010-10-27 07:22:33 51°23.311 2°44.908 326.6 13.4 328 26.3
2010-10-27 07:22:38 51°23.327 2°44.891 327.8 13.4 327 26.9
2010-10-27 07:22:43 51°23.343 2°44.876 329.5 13.4 329 26.2
2010-10-27 07:22:48 51°23.357 2°44.859 327.3 13.3 326 25.8
2010-10-27 07:22:54 51°23.377 2°44.843 331.3 13.3 333 26.3
2010-10-27 07:22:59 51°23.391 2°44.826 330.6 13.4 326 25.9
2010-10-27 07:23:03 51°23.405 2°44.815 331.5 13.3 332 26.7
2010-10-27 07:23:08 51°23.42 2°44.799 331.1 13.3 328 25.6
2010-10-27 07:23:13 51°23.437 2°44.785 332 13.7 331 24.9
2010-10-27 07:23:19 51°23.457 2°44.767 332 13.8 331 25.3
2010-10-27 07:23:23 51°23.47 2°44.754 332.5 13.7 330 25.2
2010-10-27 07:23:28 51°23.486 2°44.739 332.1 13.5 331 26
2010-10-27 07:23:33 51°23.503 2°44.724 331.5 13.6 329 26.5
2010-10-27 07:23:39 51°23.522 2°44.706 331.1 13.5 329 26.5
2010-10-27 07:23:43 51°23.535 2°44.694 331.9 13.3 331 26
2010-10-27 07:23:48 51°23.551 2°44.68 332.5 13.3 331 25.3
2010-10-27 07:23:53 51°23.567 2°44.665 332.3 13.3 328 25.3
2010-10-27 07:23:58 51°23.583 2°44.651 332.4 13.1 334 24.9
2010-10-27 07:24:03 51°23.599 2°44.635 332.5 13.3 327 25.1
2010-10-27 07:24:08 51°23.615 2°44.622 332.3 13.2 333 26.2
2010-10-27 07:24:13 51°23.631 2°44.607 332.5 13.4 330 26.7
2010-10-27 07:24:18 51°23.646 2°44.591 331.8 13.2 329 26.5
2010-10-27 07:24:23 51°23.663 2°44.578 333.3 13.5 333 26.5
2010-10-27 07:24:28 51°23.679 2°44.561 332.3 13.6 326 26
2010-10-27 07:24:33 51°23.695 2°44.545 329.2 13.5 328 25.8
2010-10-27 07:24:38 51°23.712 2°44.529 330 13.6 327 26.5
2010-10-27 07:24:43 51°23.727 2°44.513 329.8 13.6 328 26.6
2010-10-27 07:24:48 51°23.743 2°44.498 330.9 13.5 329 25.9
2010-10-27 07:24:53 51°23.759 2°44.481 329.6 13.5 329 25.8
2010-10-27 07:24:58 51°23.776 2°44.465 329.8 13.5 327 26
2010-10-27 07:25:03 51°23.791 2°44.45 328.8 13.3 329 26.9
2010-10-27 07:25:08 51°23.807 2°44.433 329.3 13.5 328 27.3
2010-10-27 07:25:14 51°23.826 2°44.414 327.9 13.2 327 26.4
2010-10-27 07:25:19 51°23.842 2°44.398 328.8 13.3 329 26.6
2010-10-27 07:25:23 51°23.854 2°44.385 329.6 13.4 326 26.3
2010-10-27 07:25:28 51°23.869 2°44.369 328.2 13.2 327 25.4
2010-10-27 07:25:33 51°23.885 2°44.353 329.5 13.3 326 26.6
2010-10-27 07:25:39 51°23.903 2°44.333 327.9 13.3 327 25.7
2010-10-27 07:25:43 51°23.916 2°44.321 328.3 13.3 329 26.8
2010-10-27 07:25:48 51°23.932 2°44.305 328.7 13.3 330 23.9
2010-10-27 07:25:53 51°23.947 2°44.289 330.4 13.5 326 24.6
2010-10-27 07:25:59 51°23.967 2°44.271 329.6 13.5 329 25.7
2010-10-27 07:26:03 51°23.979 2°44.256 328.9 13.5 325 26.2
2010-10-27 07:26:08 51°23.994 2°44.241 328.7 13.3 328 26.3
2010-10-27 07:26:13 51°24.01 2°44.225 328.8 13.5 329 27.2
2010-10-27 07:26:19 51°24.029 2°44.206 330 13.5 327 26.6
2010-10-27 07:26:23 51°24.041 2°44.193 328.1 13.3 326 26.5
2010-10-27 07:26:28 51°24.057 2°44.177 328.9 13.2 329 26.5
2010-10-27 07:26:33 51°24.072 2°44.16 329.6 13.4 325 26
2010-10-27 07:26:38 51°24.087 2°44.143 326.7 13.4 324 25
2010-10-27 07:26:43 51°24.103 2°44.129 327.5 13.2 330 25.2
2010-10-27 07:26:48 51°24.119 2°44.114 330.7 13.4 329 26.1
2010-10-27 07:26:53 51°24.135 2°44.099 329.7 13.1 328 25.4
2010-10-27 07:26:58 51°24.151 2°44.085 330.6 13.1 333 26.4
2010-10-27 07:27:03 51°24.167 2°44.071 332.6 13.3 331 26.4
2010-10-27 07:27:08 51°24.184 2°44.057 334 13.3 332 25.3
2010-10-27 07:27:13 51°24.2 2°44.044 333.8 13.3 334 26
2010-10-27 07:27:18 51°24.217 2°44.031 334.7 13.4 334 26
2010-10-27 07:27:23 51°24.234 2°44.018 336.4 13.4 335 25.5
2010-10-27 07:27:28 51°24.25 2°44.006 335.8 13.1 337 25.9
2010-10-27 07:27:34 51°24.269 2°43.994 339.2 12.7 338 26.8
2010-10-27 07:27:39 51°24.284 2°43.98 337.9 12.3 331 25.9
2010-10-27 07:27:43 51°24.297 2°43.972 334.7 12 335 26
2010-10-27 07:27:48 51°24.311 2°43.961 336.8 11.8 335 26
2010-10-27 07:27:53 51°24.325 2°43.949 335.3 11.5 335 26.2
2010-10-27 07:27:59 51°24.342 2°43.937 336.1 11.5 336 26.2
2010-10-27 07:28:03 51°24.353 2°43.928 336.2 11.4 333 26
2010-10-27 07:28:08 51°24.368 2°43.918 337.7 11.2 336 26.4
2010-10-27 07:28:13 51°24.382 2°43.908 337 11.1 336 25.5
2010-10-27 07:28:19 51°24.399 2°43.896 337.3 10.9 337 25.8
2010-10-27 07:28:23 51°24.409 2°43.888 338.6 11 336 25
2010-10-27 07:28:28 51°24.423 2°43.878 337.9 10.9 337 24.7
2010-10-27 07:28:33 51°24.437 2°43.868 336.7 10.8 336 23.7
2010-10-27 07:28:38 51°24.451 2°43.859 338.3 10.4 334 22.8
2010-10-27 07:28:43 51°24.463 2°43.849 336.5 9.4 334 22.2
2010-10-27 07:28:48 51°24.474 2°43.841 334.7 8.8 332 21.9
2010-10-27 07:28:53 51°24.483 2°43.831 333.2 8.2 331 20.8
2010-10-27 07:28:58 51°24.492 2°43.823 330.3 7.7 329 20.4
2010-10-27 07:29:03 51°24.5 2°43.814 327.7 7.1 327 22
2010-10-27 07:29:08 51°24.508 2°43.806 325.9 6.6 326 20.8
2010-10-27 07:29:13 51°24.515 2°43.798 323.4 6.1 324 20.8
2010-10-27 07:29:18 51°24.521 2°43.79 321.4 5.8 323 21
2010-10-27 07:29:23 51°24.527 2°43.782 319.5 5.6 320 21.3
2010-10-27 07:29:28 51°24.533 2°43.775 318.6 5.3 322 21.6
2010-10-27 07:29:33 51°24.538 2°43.768 317.4 5 319 22.1
2010-10-27 07:29:38 51°24.543 2°43.761 316.1 4.8 320 22
2010-10-27 07:29:43 51°24.548 2°43.754 316.2 4.6 320 23
2010-10-27 07:29:48 51°24.552 2°43.748 316.5 4.3 321 23
2010-10-27 07:29:54 51°24.558 2°43.741 317.2 4.3 323 23.2
2010-10-27 07:29:59 51°24.563 2°43.736 317.9 4.2 323 22.8
2010-10-27 07:30:03 51°24.566 2°43.731 319.2 4.3 323 22.7
2010-10-27 07:30:08 51°24.571 2°43.726 321.8 4.1 326 22.9
2010-10-27 07:30:13 51°24.576 2°43.721 325 4.2 327 23.3
2010-10-27 07:30:19 51°24.582 2°43.716 327.9 4.1 333 23
2010-10-27 07:30:23 51°24.586 2°43.713 331.4 4 336 23.4
2010-10-27 07:30:28 51°24.591 2°43.709 334.3 3.9 334 22.7
2010-10-27 07:30:33 51°24.596 2°43.706 336.1 4.1 336 22.6
2010-10-27 07:30:39 51°24.602 2°43.702 338.6 3.9 339 22.7
2010-10-27 07:30:43 51°24.606 2°43.701 342.8 3.8 346 22.8
2010-10-27 07:30:48 51°24.611 2°43.699 345.9 3.7 348 22.2
2010-10-27 07:30:53 51°24.616 2°43.697 348.6 3.8 349 22.6
2010-10-27 07:30:58 51°24.621 2°43.696 352 3.7 353 21.6
2010-10-27 07:31:03 51°24.626 2°43.696 355.2 3.6 352 21.2
2010-10-27 07:31:08 51°24.631 2°43.696 357.3 3.6 -999 21.2
2010-10-27 07:31:13 51°24.637 2°43.695 0.8 3.9 2 20.4
2010-10-27 07:31:18 51°24.642 2°43.696 5.2 4 -999 20.8
2010-10-27 07:31:23 51°24.647 2°43.697 10.6 3.6 9 21.8
2010-10-27 07:31:28 51°24.651 2°43.698 14.6 3.3 8 22.6
2010-10-27 07:31:34 51°24.656 2°43.7 17.1 3 11 23.3
2010-10-27 07:31:38 51°24.659 2°43.7 17.3 2.7 3 23.1
2010-10-27 07:31:43 51°24.663 2°43.701 15 2.5 9 22.2
2010-10-27 07:31:48 51°24.666 2°43.701 11.5 2.2 2 21.4
2010-10-27 07:31:53 51°24.668 2°43.701 8.2 1.9 1 21.5
2010-10-27 07:31:58 51°24.67 2°43.7 4.7 1.6 355 22.1
2010-10-27 07:32:03 51°24.672 2°43.7 0.8 1.3 358 23
2010-10-27 07:32:08 51°24.674 2°43.701 357 1.1 2 22.9
2010-10-27 07:32:14 51°24.675 2°43.701 353.6 0.8 10 23.1
2010-10-27 07:32:19 51°24.675 2°43.701 350.7 0.7 349 22.7
2010-10-27 07:32:23 51°24.676 2°43.701 348.5 0.8 20 22.7
2010-10-27 07:32:28 51°24.677 2°43.701 347.3 0.6 5 23
2010-10-27 07:32:33 51°24.677 2°43.702 346.3 0.7 45 23.7
2010-10-27 07:32:39 51°24.678 2°43.702 344.9 0.3 26 23.7
2010-10-27 07:32:43 51°24.678 2°43.703 344 0.3 61 23.5
2010-10-27 07:32:48 51°24.678 2°43.704 343.7 0.8 71 24
2010-10-27 07:32:53 51°24.678 2°43.704 344.2 0.2 77 23.7
2010-10-27 07:32:58 51°24.678 2°43.705 344.9 0.2 106 23.7
2010-10-27 07:33:03 51°24.678 2°43.706 345.6 0.5 93 23.4
2010-10-27 07:33:08 51°24.678 2°43.707 346.4 0.4 92 23.5
2010-10-27 07:33:13 51°24.678 2°43.707 347.8 0.2 95 23.4
2010-10-27 07:33:18 51°24.677 2°43.708 349.5 0.3 145 23.3
2010-10-27 07:33:23 51°24.677 2°43.709 350.8 0.5 135 23.5